sensor_id;sensor_type;location;lat;lon;timestamp;P1;durP1;ratioP1;P2;durP2;ratioP2
15665;SDS011;20725;51.196;3.510;2023-11-21T00:00:17;79.10;;;38.30;;
15665;SDS011;20725;51.196;3.510;2023-11-21T00:02:44;78.60;;;37.33;;
15665;SDS011;20725;51.196;3.510;2023-11-21T00:05:12;91.23;;;39.37;;
15665;SDS011;20725;51.196;3.510;2023-11-21T00:07:40;89.90;;;38.50;;
15665;SDS011;20725;51.196;3.510;2023-11-21T00:10:08;97.77;;;39.53;;
15665;SDS011;20725;51.196;3.510;2023-11-21T00:12:37;89.07;;;38.90;;
15665;SDS011;20725;51.196;3.510;2023-11-21T00:15:07;122.43;;;44.10;;
15665;SDS011;20725;51.196;3.510;2023-11-21T00:17:35;89.07;;;39.03;;
15665;SDS011;20725;51.196;3.510;2023-11-21T00:20:02;126.03;;;44.97;;
15665;SDS011;20725;51.196;3.510;2023-11-21T00:22:31;107.80;;;38.30;;
15665;SDS011;20725;51.196;3.510;2023-11-21T00:24:58;93.87;;;38.73;;
15665;SDS011;20725;51.196;3.510;2023-11-21T00:27:26;70.57;;;35.30;;
15665;SDS011;20725;51.196;3.510;2023-11-21T00:29:55;74.53;;;33.93;;
15665;SDS011;20725;51.196;3.510;2023-11-21T00:32:22;121.30;;;41.67;;
15665;SDS011;20725;51.196;3.510;2023-11-21T00:34:49;79.90;;;34.70;;
15665;SDS011;20725;51.196;3.510;2023-11-21T00:37:16;90.50;;;36.67;;
15665;SDS011;20725;51.196;3.510;2023-11-21T00:39:44;79.70;;;34.67;;
15665;SDS011;20725;51.196;3.510;2023-11-21T00:42:11;65.77;;;30.10;;
15665;SDS011;20725;51.196;3.510;2023-11-21T00:44:39;65.53;;;30.60;;
15665;SDS011;20725;51.196;3.510;2023-11-21T00:47:07;78.17;;;30.93;;
15665;SDS011;20725;51.196;3.510;2023-11-21T00:49:35;73.83;;;31.57;;
15665;SDS011;20725;51.196;3.510;2023-11-21T00:52:04;59.80;;;28.50;;
15665;SDS011;20725;51.196;3.510;2023-11-21T00:54:32;74.17;;;31.77;;
15665;SDS011;20725;51.196;3.510;2023-11-21T00:56:59;68.03;;;30.23;;
15665;SDS011;20725;51.196;3.510;2023-11-21T00:59:26;63.60;;;29.53;;
15665;SDS011;20725;51.196;3.510;2023-11-21T01:01:54;68.30;;;28.90;;
15665;SDS011;20725;51.196;3.510;2023-11-21T01:04:22;74.20;;;30.07;;
15665;SDS011;20725;51.196;3.510;2023-11-21T01:06:49;74.10;;;29.97;;
15665;SDS011;20725;51.196;3.510;2023-11-21T01:09:17;63.53;;;28.27;;
15665;SDS011;20725;51.196;3.510;2023-11-21T01:11:44;79.13;;;29.90;;
15665;SDS011;20725;51.196;3.510;2023-11-21T01:14:11;67.47;;;28.47;;
15665;SDS011;20725;51.196;3.510;2023-11-21T01:16:38;76.47;;;28.27;;
15665;SDS011;20725;51.196;3.510;2023-11-21T01:19:06;80.13;;;29.63;;
15665;SDS011;20725;51.196;3.510;2023-11-21T01:21:35;70.73;;;26.33;;
15665;SDS011;20725;51.196;3.510;2023-11-21T01:24:03;74.03;;;28.73;;
15665;SDS011;20725;51.196;3.510;2023-11-21T01:26:32;59.77;;;27.37;;
15665;SDS011;20725;51.196;3.510;2023-11-21T01:28:59;82.10;;;29.10;;
15665;SDS011;20725;51.196;3.510;2023-11-21T01:31:26;102.37;;;32.20;;
15665;SDS011;20725;51.196;3.510;2023-11-21T01:33:54;83.30;;;28.77;;
15665;SDS011;20725;51.196;3.510;2023-11-21T01:36:22;134.87;;;36.67;;
15665;SDS011;20725;51.196;3.510;2023-11-21T01:38:50;89.20;;;29.27;;
15665;SDS011;20725;51.196;3.510;2023-11-21T01:41:18;79.80;;;29.47;;
15665;SDS011;20725;51.196;3.510;2023-11-21T01:43:45;58.73;;;26.10;;
15665;SDS011;20725;51.196;3.510;2023-11-21T01:46:12;63.83;;;27.30;;
15665;SDS011;20725;51.196;3.510;2023-11-21T01:48:40;69.47;;;27.03;;
15665;SDS011;20725;51.196;3.510;2023-11-21T01:51:07;77.63;;;26.60;;
15665;SDS011;20725;51.196;3.510;2023-11-21T01:53:35;60.33;;;26.73;;
15665;SDS011;20725;51.196;3.510;2023-11-21T01:56:04;68.97;;;27.57;;
15665;SDS011;20725;51.196;3.510;2023-11-21T01:58:33;71.03;;;26.63;;
15665;SDS011;20725;51.196;3.510;2023-11-21T02:01:00;64.00;;;26.37;;
15665;SDS011;20725;51.196;3.510;2023-11-21T02:03:28;66.37;;;27.53;;
15665;SDS011;20725;51.196;3.510;2023-11-21T02:05:55;74.03;;;28.67;;
15665;SDS011;20725;51.196;3.510;2023-11-21T02:08:22;69.97;;;28.43;;
15665;SDS011;20725;51.196;3.510;2023-11-21T02:10:49;67.43;;;27.53;;
15665;SDS011;20725;51.196;3.510;2023-11-21T02:13:18;66.50;;;24.73;;
15665;SDS011;20725;51.196;3.510;2023-11-21T02:15:45;76.53;;;26.90;;
15665;SDS011;20725;51.196;3.510;2023-11-21T02:18:14;70.40;;;26.47;;
15665;SDS011;20725;51.196;3.510;2023-11-21T02:20:43;58.77;;;25.07;;
15665;SDS011;20725;51.196;3.510;2023-11-21T02:23:12;69.40;;;26.53;;
15665;SDS011;20725;51.196;3.510;2023-11-21T02:25:39;68.47;;;26.43;;
15665;SDS011;20725;51.196;3.510;2023-11-21T02:28:07;61.63;;;24.80;;
15665;SDS011;20725;51.196;3.510;2023-11-21T02:30:37;66.93;;;25.20;;
15665;SDS011;20725;51.196;3.510;2023-11-21T02:33:05;83.57;;;25.27;;
15665;SDS011;20725;51.196;3.510;2023-11-21T02:35:32;71.20;;;25.97;;
15665;SDS011;20725;51.196;3.510;2023-11-21T02:38:00;71.27;;;26.53;;
15665;SDS011;20725;51.196;3.510;2023-11-21T02:40:28;79.07;;;27.03;;
15665;SDS011;20725;51.196;3.510;2023-11-21T02:42:56;79.43;;;25.80;;
15665;SDS011;20725;51.196;3.510;2023-11-21T02:45:24;70.37;;;25.33;;
15665;SDS011;20725;51.196;3.510;2023-11-21T02:47:51;71.50;;;24.53;;
15665;SDS011;20725;51.196;3.510;2023-11-21T02:50:21;76.00;;;25.97;;
15665;SDS011;20725;51.196;3.510;2023-11-21T02:52:49;77.00;;;25.60;;
15665;SDS011;20725;51.196;3.510;2023-11-21T02:55:16;75.57;;;26.50;;
15665;SDS011;20725;51.196;3.510;2023-11-21T02:57:44;77.13;;;26.83;;
15665;SDS011;20725;51.196;3.510;2023-11-21T03:00:12;80.63;;;26.50;;
15665;SDS011;20725;51.196;3.510;2023-11-21T03:02:40;81.07;;;25.23;;
15665;SDS011;20725;51.196;3.510;2023-11-21T03:05:07;92.47;;;27.73;;
15665;SDS011;20725;51.196;3.510;2023-11-21T03:07:35;117.07;;;30.47;;
15665;SDS011;20725;51.196;3.510;2023-11-21T03:10:02;99.87;;;28.47;;
15665;SDS011;20725;51.196;3.510;2023-11-21T03:12:30;96.40;;;28.80;;
15665;SDS011;20725;51.196;3.510;2023-11-21T03:14:59;96.17;;;29.33;;
15665;SDS011;20725;51.196;3.510;2023-11-21T03:17:27;114.53;;;30.83;;
15665;SDS011;20725;51.196;3.510;2023-11-21T03:19:55;116.83;;;31.83;;
15665;SDS011;20725;51.196;3.510;2023-11-21T03:22:22;112.63;;;31.20;;
15665;SDS011;20725;51.196;3.510;2023-11-21T03:24:50;111.77;;;30.50;;
15665;SDS011;20725;51.196;3.510;2023-11-21T03:27:16;103.07;;;30.40;;
15665;SDS011;20725;51.196;3.510;2023-11-21T03:29:43;102.47;;;28.63;;
15665;SDS011;20725;51.196;3.510;2023-11-21T03:32:13;170.07;;;33.37;;
15665;SDS011;20725;51.196;3.510;2023-11-21T03:34:52;169.33;;;35.40;;
15665;SDS011;20725;51.196;3.510;2023-11-21T03:37:21;208.47;;;37.03;;
15665;SDS011;20725;51.196;3.510;2023-11-21T03:39:48;139.63;;;33.83;;
15665;SDS011;20725;51.196;3.510;2023-11-21T03:42:15;109.07;;;30.13;;
15665;SDS011;20725;51.196;3.510;2023-11-21T03:44:43;92.87;;;29.03;;
15665;SDS011;20725;51.196;3.510;2023-11-21T03:47:10;146.23;;;34.00;;
15665;SDS011;20725;51.196;3.510;2023-11-21T03:49:39;117.07;;;29.13;;
15665;SDS011;20725;51.196;3.510;2023-11-21T03:52:06;112.60;;;30.83;;
15665;SDS011;20725;51.196;3.510;2023-11-21T03:54:34;95.87;;;28.63;;
15665;SDS011;20725;51.196;3.510;2023-11-21T03:57:01;106.30;;;31.67;;
15665;SDS011;20725;51.196;3.510;2023-11-21T03:59:28;131.13;;;34.73;;
15665;SDS011;20725;51.196;3.510;2023-11-21T04:01:56;114.50;;;30.70;;
15665;SDS011;20725;51.196;3.510;2023-11-21T04:04:23;115.87;;;32.83;;
15665;SDS011;20725;51.196;3.510;2023-11-21T04:06:51;140.50;;;36.93;;
15665;SDS011;20725;51.196;3.510;2023-11-21T04:09:19;187.43;;;41.17;;
15665;SDS011;20725;51.196;3.510;2023-11-21T04:11:50;137.23;;;33.57;;
15665;SDS011;20725;51.196;3.510;2023-11-21T04:14:17;97.67;;;29.53;;
15665;SDS011;20725;51.196;3.510;2023-11-21T04:16:44;87.87;;;28.30;;
15665;SDS011;20725;51.196;3.510;2023-11-21T04:19:11;96.77;;;31.33;;
15665;SDS011;20725;51.196;3.510;2023-11-21T04:21:39;189.07;;;42.67;;
15665;SDS011;20725;51.196;3.510;2023-11-21T04:24:08;136.90;;;37.23;;
15665;SDS011;20725;51.196;3.510;2023-11-21T04:26:36;196.60;;;41.07;;
15665;SDS011;20725;51.196;3.510;2023-11-21T04:29:03;222.33;;;41.47;;
15665;SDS011;20725;51.196;3.510;2023-11-21T04:31:31;165.23;;;38.20;;
15665;SDS011;20725;51.196;3.510;2023-11-21T04:33:58;150.20;;;37.67;;
15665;SDS011;20725;51.196;3.510;2023-11-21T04:36:25;118.27;;;32.13;;
15665;SDS011;20725;51.196;3.510;2023-11-21T04:38:52;165.50;;;37.63;;
15665;SDS011;20725;51.196;3.510;2023-11-21T04:41:21;179.50;;;37.87;;
15665;SDS011;20725;51.196;3.510;2023-11-21T04:43:48;173.53;;;37.10;;
15665;SDS011;20725;51.196;3.510;2023-11-21T04:46:15;215.57;;;39.83;;
15665;SDS011;20725;51.196;3.510;2023-11-21T04:48:43;82.90;;;25.87;;
15665;SDS011;20725;51.196;3.510;2023-11-21T04:51:10;89.17;;;29.33;;
15665;SDS011;20725;51.196;3.510;2023-11-21T04:53:37;212.10;;;40.27;;
15665;SDS011;20725;51.196;3.510;2023-11-21T04:56:05;180.87;;;38.57;;
15665;SDS011;20725;51.196;3.510;2023-11-21T04:58:34;227.73;;;42.53;;
15665;SDS011;20725;51.196;3.510;2023-11-21T05:01:01;294.00;;;45.57;;
15665;SDS011;20725;51.196;3.510;2023-11-21T05:03:28;345.23;;;46.90;;
15665;SDS011;20725;51.196;3.510;2023-11-21T05:05:56;373.43;;;47.57;;
15665;SDS011;20725;51.196;3.510;2023-11-21T05:08:24;482.93;;;56.23;;
15665;SDS011;20725;51.196;3.510;2023-11-21T05:10:52;490.40;;;59.03;;
15665;SDS011;20725;51.196;3.510;2023-11-21T05:13:19;542.37;;;63.50;;
15665;SDS011;20725;51.196;3.510;2023-11-21T05:15:49;624.97;;;62.53;;
15665;SDS011;20725;51.196;3.510;2023-11-21T05:18:16;577.60;;;60.93;;
15665;SDS011;20725;51.196;3.510;2023-11-21T05:20:43;627.80;;;64.17;;
15665;SDS011;20725;51.196;3.510;2023-11-21T05:23:10;510.50;;;55.07;;
15665;SDS011;20725;51.196;3.510;2023-11-21T05:25:37;662.93;;;71.27;;
15665;SDS011;20725;51.196;3.510;2023-11-21T05:28:06;499.70;;;50.37;;
15665;SDS011;20725;51.196;3.510;2023-11-21T05:30:33;763.43;;;72.97;;
15665;SDS011;20725;51.196;3.510;2023-11-21T05:33:02;796.03;;;72.37;;
15665;SDS011;20725;51.196;3.510;2023-11-21T05:35:29;803.97;;;73.77;;
15665;SDS011;20725;51.196;3.510;2023-11-21T05:37:56;764.60;;;67.50;;
15665;SDS011;20725;51.196;3.510;2023-11-21T05:40:23;973.10;;;77.67;;
15665;SDS011;20725;51.196;3.510;2023-11-21T05:42:54;782.07;;;72.27;;
15665;SDS011;20725;51.196;3.510;2023-11-21T05:45:22;854.60;;;70.10;;
15665;SDS011;20725;51.196;3.510;2023-11-21T05:47:49;706.47;;;64.63;;
15665;SDS011;20725;51.196;3.510;2023-11-21T05:50:17;767.83;;;70.03;;
15665;SDS011;20725;51.196;3.510;2023-11-21T05:52:45;675.40;;;61.33;;
15665;SDS011;20725;51.196;3.510;2023-11-21T05:55:12;716.50;;;68.33;;
15665;SDS011;20725;51.196;3.510;2023-11-21T05:57:40;511.60;;;52.80;;
15665;SDS011;20725;51.196;3.510;2023-11-21T06:00:09;751.43;;;68.07;;
15665;SDS011;20725;51.196;3.510;2023-11-21T06:02:37;626.97;;;59.30;;
15665;SDS011;20725;51.196;3.510;2023-11-21T06:05:05;610.90;;;60.30;;
15665;SDS011;20725;51.196;3.510;2023-11-21T06:07:34;641.77;;;63.03;;
15665;SDS011;20725;51.196;3.510;2023-11-21T06:10:01;540.70;;;56.57;;
15665;SDS011;20725;51.196;3.510;2023-11-21T06:12:32;516.23;;;55.40;;
15665;SDS011;20725;51.196;3.510;2023-11-21T06:15:01;553.37;;;53.47;;
15665;SDS011;20725;51.196;3.510;2023-11-21T06:17:30;539.50;;;58.10;;
15665;SDS011;20725;51.196;3.510;2023-11-21T06:19:57;156.93;;;31.17;;
15665;SDS011;20725;51.196;3.510;2023-11-21T06:22:25;314.27;;;37.10;;
15665;SDS011;20725;51.196;3.510;2023-11-21T06:24:57;353.07;;;42.37;;
15665;SDS011;20725;51.196;3.510;2023-11-21T06:27:24;176.93;;;32.17;;
15665;SDS011;20725;51.196;3.510;2023-11-21T06:29:51;238.20;;;36.23;;
15665;SDS011;20725;51.196;3.510;2023-11-21T06:32:18;308.97;;;39.93;;
15665;SDS011;20725;51.196;3.510;2023-11-21T06:34:47;154.93;;;29.97;;
15665;SDS011;20725;51.196;3.510;2023-11-21T06:37:15;150.40;;;28.80;;
15665;SDS011;20725;51.196;3.510;2023-11-21T06:39:42;109.43;;;25.60;;
15665;SDS011;20725;51.196;3.510;2023-11-21T06:42:11;100.83;;;24.73;;
15665;SDS011;20725;51.196;3.510;2023-11-21T06:44:38;105.40;;;24.63;;
15665;SDS011;20725;51.196;3.510;2023-11-21T06:47:06;102.17;;;23.70;;
15665;SDS011;20725;51.196;3.510;2023-11-21T06:49:33;103.13;;;23.67;;
15665;SDS011;20725;51.196;3.510;2023-11-21T06:52:01;112.77;;;23.70;;
15665;SDS011;20725;51.196;3.510;2023-11-21T06:54:28;116.83;;;25.03;;
15665;SDS011;20725;51.196;3.510;2023-11-21T06:56:56;131.57;;;26.83;;
15665;SDS011;20725;51.196;3.510;2023-11-21T06:59:25;103.90;;;25.67;;
15665;SDS011;20725;51.196;3.510;2023-11-21T07:01:52;96.43;;;22.30;;
15665;SDS011;20725;51.196;3.510;2023-11-21T07:04:20;68.33;;;18.87;;
15665;SDS011;20725;51.196;3.510;2023-11-21T07:06:47;64.10;;;17.67;;
15665;SDS011;20725;51.196;3.510;2023-11-21T07:09:14;79.27;;;20.33;;
15665;SDS011;20725;51.196;3.510;2023-11-21T07:11:42;62.20;;;18.37;;
15665;SDS011;20725;51.196;3.510;2023-11-21T07:14:09;82.60;;;19.13;;
15665;SDS011;20725;51.196;3.510;2023-11-21T07:16:38;60.63;;;15.97;;
15665;SDS011;20725;51.196;3.510;2023-11-21T07:19:06;69.10;;;17.53;;
15665;SDS011;20725;51.196;3.510;2023-11-21T07:21:33;62.37;;;16.60;;
15665;SDS011;20725;51.196;3.510;2023-11-21T07:24:01;56.83;;;16.77;;
15665;SDS011;20725;51.196;3.510;2023-11-21T07:26:28;59.30;;;16.80;;
15665;SDS011;20725;51.196;3.510;2023-11-21T07:28:56;58.17;;;16.63;;
15665;SDS011;20725;51.196;3.510;2023-11-21T07:31:23;63.47;;;17.10;;
15665;SDS011;20725;51.196;3.510;2023-11-21T07:33:54;55.23;;;16.10;;
15665;SDS011;20725;51.196;3.510;2023-11-21T07:36:22;66.03;;;16.60;;
15665;SDS011;20725;51.196;3.510;2023-11-21T07:38:50;60.27;;;17.17;;
15665;SDS011;20725;51.196;3.510;2023-11-21T07:41:17;55.80;;;16.00;;
15665;SDS011;20725;51.196;3.510;2023-11-21T07:43:46;58.70;;;16.17;;
15665;SDS011;20725;51.196;3.510;2023-11-21T07:46:13;61.10;;;16.53;;
15665;SDS011;20725;51.196;3.510;2023-11-21T07:48:40;60.27;;;16.40;;
15665;SDS011;20725;51.196;3.510;2023-11-21T07:51:09;51.77;;;14.60;;
15665;SDS011;20725;51.196;3.510;2023-11-21T07:53:38;87.07;;;17.47;;
15665;SDS011;20725;51.196;3.510;2023-11-21T07:56:06;49.83;;;13.77;;
15665;SDS011;20725;51.196;3.510;2023-11-21T07:58:34;45.67;;;13.77;;
15665;SDS011;20725;51.196;3.510;2023-11-21T08:01:01;58.20;;;15.20;;
15665;SDS011;20725;51.196;3.510;2023-11-21T08:03:29;43.77;;;14.00;;
15665;SDS011;20725;51.196;3.510;2023-11-21T08:05:56;38.37;;;12.40;;
15665;SDS011;20725;51.196;3.510;2023-11-21T08:08:26;34.03;;;11.73;;
15665;SDS011;20725;51.196;3.510;2023-11-21T08:10:53;22.93;;;9.40;;
15665;SDS011;20725;51.196;3.510;2023-11-21T08:13:22;19.73;;;8.80;;
15665;SDS011;20725;51.196;3.510;2023-11-21T08:15:49;20.97;;;8.53;;
15665;SDS011;20725;51.196;3.510;2023-11-21T08:18:17;13.67;;;6.63;;
15665;SDS011;20725;51.196;3.510;2023-11-21T08:20:44;17.33;;;6.83;;
15665;SDS011;20725;51.196;3.510;2023-11-21T08:23:14;17.77;;;7.27;;
15665;SDS011;20725;51.196;3.510;2023-11-21T08:25:43;24.20;;;8.97;;
15665;SDS011;20725;51.196;3.510;2023-11-21T08:28:10;434.17;;;39.20;;
15665;SDS011;20725;51.196;3.510;2023-11-21T08:30:39;137.37;;;16.80;;
15665;SDS011;20725;51.196;3.510;2023-11-21T08:33:06;34.03;;;8.37;;
15665;SDS011;20725;51.196;3.510;2023-11-21T08:35:34;87.50;;;15.40;;
15665;SDS011;20725;51.196;3.510;2023-11-21T08:38:02;203.80;;;23.53;;
15665;SDS011;20725;51.196;3.510;2023-11-21T08:40:29;678.70;;;62.47;;
15665;SDS011;20725;51.196;3.510;2023-11-21T08:42:58;1012.80;;;96.73;;
15665;SDS011;20725;51.196;3.510;2023-11-21T08:45:25;762.43;;;71.77;;
15665;SDS011;20725;51.196;3.510;2023-11-21T08:47:53;15.43;;;4.07;;
15665;SDS011;20725;51.196;3.510;2023-11-21T08:50:21;78.17;;;11.00;;
15665;SDS011;20725;51.196;3.510;2023-11-21T08:52:48;73.63;;;9.07;;
15665;SDS011;20725;51.196;3.510;2023-11-21T08:55:16;691.73;;;47.17;;
15665;SDS011;20725;51.196;3.510;2023-11-21T08:57:45;1241.27;;;83.00;;
15665;SDS011;20725;51.196;3.510;2023-11-21T09:00:14;123.90;;;14.40;;
15665;SDS011;20725;51.196;3.510;2023-11-21T09:02:42;38.27;;;4.30;;
15665;SDS011;20725;51.196;3.510;2023-11-21T09:05:10;320.73;;;31.07;;
15665;SDS011;20725;51.196;3.510;2023-11-21T09:07:38;28.03;;;4.40;;
15665;SDS011;20725;51.196;3.510;2023-11-21T09:10:06;173.43;;;17.00;;
15665;SDS011;20725;51.196;3.510;2023-11-21T09:12:34;6.40;;;2.17;;
15665;SDS011;20725;51.196;3.510;2023-11-21T09:15:02;8.90;;;1.83;;
15665;SDS011;20725;51.196;3.510;2023-11-21T09:17:31;4.30;;;1.80;;
15665;SDS011;20725;51.196;3.510;2023-11-21T09:20:00;7.73;;;1.87;;
15665;SDS011;20725;51.196;3.510;2023-11-21T09:22:30;6.63;;;1.70;;
15665;SDS011;20725;51.196;3.510;2023-11-21T09:24:58;9.13;;;2.20;;
15665;SDS011;20725;51.196;3.510;2023-11-21T09:27:35;3.87;;;1.77;;
15665;SDS011;20725;51.196;3.510;2023-11-21T09:30:02;8.73;;;2.80;;
15665;SDS011;20725;51.196;3.510;2023-11-21T09:32:32;7.97;;;2.30;;
15665;SDS011;20725;51.196;3.510;2023-11-21T09:35:00;8.27;;;2.27;;
15665;SDS011;20725;51.196;3.510;2023-11-21T09:37:27;9.93;;;2.13;;
15665;SDS011;20725;51.196;3.510;2023-11-21T09:39:54;10.63;;;2.90;;
15665;SDS011;20725;51.196;3.510;2023-11-21T09:42:22;7.30;;;3.13;;
15665;SDS011;20725;51.196;3.510;2023-11-21T09:44:52;10.97;;;4.00;;
15665;SDS011;20725;51.196;3.510;2023-11-21T09:47:21;6.43;;;3.80;;
15665;SDS011;20725;51.196;3.510;2023-11-21T09:49:50;5.23;;;3.40;;
15665;SDS011;20725;51.196;3.510;2023-11-21T09:52:22;6.53;;;3.70;;
15665;SDS011;20725;51.196;3.510;2023-11-21T09:54:50;10.03;;;4.17;;
15665;SDS011;20725;51.196;3.510;2023-11-21T09:57:19;9.60;;;4.37;;
15665;SDS011;20725;51.196;3.510;2023-11-21T09:59:48;8.67;;;4.53;;
15665;SDS011;20725;51.196;3.510;2023-11-21T10:02:18;9.77;;;4.73;;
15665;SDS011;20725;51.196;3.510;2023-11-21T10:04:46;7.67;;;4.10;;
15665;SDS011;20725;51.196;3.510;2023-11-21T10:07:15;5.47;;;4.20;;
15665;SDS011;20725;51.196;3.510;2023-11-21T10:09:43;5.93;;;3.53;;
15665;SDS011;20725;51.196;3.510;2023-11-21T10:12:11;5.27;;;3.53;;
15665;SDS011;20725;51.196;3.510;2023-11-21T10:14:39;10.70;;;4.00;;
15665;SDS011;20725;51.196;3.510;2023-11-21T10:17:09;8.60;;;3.93;;
15665;SDS011;20725;51.196;3.510;2023-11-21T10:19:38;7.73;;;2.80;;
15665;SDS011;20725;51.196;3.510;2023-11-21T10:22:06;8.80;;;2.57;;
15665;SDS011;20725;51.196;3.510;2023-11-21T10:24:35;4.97;;;2.30;;
15665;SDS011;20725;51.196;3.510;2023-11-21T10:27:03;4.60;;;2.20;;
15665;SDS011;20725;51.196;3.510;2023-11-21T10:29:33;10.00;;;3.07;;
15665;SDS011;20725;51.196;3.510;2023-11-21T10:32:01;6.20;;;2.67;;
15665;SDS011;20725;51.196;3.510;2023-11-21T10:34:29;8.07;;;2.70;;
15665;SDS011;20725;51.196;3.510;2023-11-21T10:36:56;5.93;;;2.60;;
15665;SDS011;20725;51.196;3.510;2023-11-21T10:39:24;8.13;;;3.27;;
15665;SDS011;20725;51.196;3.510;2023-11-21T10:41:57;8.77;;;2.60;;
15665;SDS011;20725;51.196;3.510;2023-11-21T10:44:25;9.77;;;3.27;;
15665;SDS011;20725;51.196;3.510;2023-11-21T10:46:52;10.67;;;3.03;;
15665;SDS011;20725;51.196;3.510;2023-11-21T10:49:21;10.23;;;3.03;;
15665;SDS011;20725;51.196;3.510;2023-11-21T10:51:50;10.63;;;2.57;;
15665;SDS011;20725;51.196;3.510;2023-11-21T10:54:18;7.97;;;2.47;;
15665;SDS011;20725;51.196;3.510;2023-11-21T10:56:47;8.23;;;2.73;;
15665;SDS011;20725;51.196;3.510;2023-11-21T10:59:17;9.30;;;2.80;;
15665;SDS011;20725;51.196;3.510;2023-11-21T11:01:50;9.33;;;2.33;;
15665;SDS011;20725;51.196;3.510;2023-11-21T11:04:18;9.47;;;2.77;;
15665;SDS011;20725;51.196;3.510;2023-11-21T11:06:48;8.63;;;3.00;;
15665;SDS011;20725;51.196;3.510;2023-11-21T11:09:17;8.43;;;2.70;;
15665;SDS011;20725;51.196;3.510;2023-11-21T11:11:44;8.93;;;2.47;;
15665;SDS011;20725;51.196;3.510;2023-11-21T11:14:12;6.83;;;2.60;;
15665;SDS011;20725;51.196;3.510;2023-11-21T11:16:41;7.90;;;2.33;;
15665;SDS011;20725;51.196;3.510;2023-11-21T11:19:10;6.03;;;2.03;;
15665;SDS011;20725;51.196;3.510;2023-11-21T11:21:43;4.67;;;2.10;;
15665;SDS011;20725;51.196;3.510;2023-11-21T11:24:17;6.23;;;2.23;;
15665;SDS011;20725;51.196;3.510;2023-11-21T11:26:49;6.13;;;2.03;;
15665;SDS011;20725;51.196;3.510;2023-11-21T11:29:21;7.73;;;2.50;;
15665;SDS011;20725;51.196;3.510;2023-11-21T11:31:55;6.43;;;2.20;;
15665;SDS011;20725;51.196;3.510;2023-11-21T11:34:26;6.90;;;2.40;;
15665;SDS011;20725;51.196;3.510;2023-11-21T11:36:58;5.70;;;1.93;;
15665;SDS011;20725;51.196;3.510;2023-11-21T11:39:27;5.83;;;2.30;;
15665;SDS011;20725;51.196;3.510;2023-11-21T11:41:55;5.03;;;2.10;;
15665;SDS011;20725;51.196;3.510;2023-11-21T11:47:14;4.80;;;2.10;;
15665;SDS011;20725;51.196;3.510;2023-11-21T11:49:54;3.00;;;1.63;;
15665;SDS011;20725;51.196;3.510;2023-11-21T11:55:05;4.60;;;1.93;;
15665;SDS011;20725;51.196;3.510;2023-11-21T11:57:35;5.90;;;1.63;;
15665;SDS011;20725;51.196;3.510;2023-11-21T12:00:10;8.83;;;1.70;;
15665;SDS011;20725;51.196;3.510;2023-11-21T12:02:43;5.20;;;1.70;;
15665;SDS011;20725;51.196;3.510;2023-11-21T12:05:12;6.67;;;1.73;;
15665;SDS011;20725;51.196;3.510;2023-11-21T12:07:43;5.13;;;2.00;;
15665;SDS011;20725;51.196;3.510;2023-11-21T12:10:13;4.00;;;1.53;;
15665;SDS011;20725;51.196;3.510;2023-11-21T12:12:46;7.43;;;1.80;;
15665;SDS011;20725;51.196;3.510;2023-11-21T12:15:14;6.33;;;2.10;;
15665;SDS011;20725;51.196;3.510;2023-11-21T12:17:43;5.53;;;1.70;;
15665;SDS011;20725;51.196;3.510;2023-11-21T12:20:11;7.80;;;2.30;;
15665;SDS011;20725;51.196;3.510;2023-11-21T12:22:43;9.33;;;2.30;;
15665;SDS011;20725;51.196;3.510;2023-11-21T12:25:12;5.13;;;1.37;;
15665;SDS011;20725;51.196;3.510;2023-11-21T12:27:41;6.57;;;1.93;;
15665;SDS011;20725;51.196;3.510;2023-11-21T12:30:10;4.53;;;1.80;;
15665;SDS011;20725;51.196;3.510;2023-11-21T12:32:40;2.97;;;1.80;;
15665;SDS011;20725;51.196;3.510;2023-11-21T12:35:09;5.03;;;1.70;;
15665;SDS011;20725;51.196;3.510;2023-11-21T12:37:40;3.93;;;1.63;;
15665;SDS011;20725;51.196;3.510;2023-11-21T12:40:08;3.27;;;1.67;;
15665;SDS011;20725;51.196;3.510;2023-11-21T12:42:39;3.80;;;1.50;;
15665;SDS011;20725;51.196;3.510;2023-11-21T12:45:12;3.07;;;1.47;;
15665;SDS011;20725;51.196;3.510;2023-11-21T12:47:45;2.27;;;1.17;;
15665;SDS011;20725;51.196;3.510;2023-11-21T12:50:15;3.87;;;1.50;;
15665;SDS011;20725;51.196;3.510;2023-11-21T12:52:46;3.63;;;1.60;;
15665;SDS011;20725;51.196;3.510;2023-11-21T12:55:15;2.97;;;1.17;;
15665;SDS011;20725;51.196;3.510;2023-11-21T12:57:43;2.07;;;1.17;;
15665;SDS011;20725;51.196;3.510;2023-11-21T13:00:12;3.03;;;1.40;;
15665;SDS011;20725;51.196;3.510;2023-11-21T13:02:52;3.50;;;1.47;;
15665;SDS011;20725;51.196;3.510;2023-11-21T13:05:26;4.00;;;1.30;;
15665;SDS011;20725;51.196;3.510;2023-11-21T13:07:54;3.10;;;1.63;;
15665;SDS011;20725;51.196;3.510;2023-11-21T13:10:23;3.10;;;1.25;;
15665;SDS011;20725;51.196;3.510;2023-11-21T13:12:54;2.00;;;1.20;;
15665;SDS011;20725;51.196;3.510;2023-11-21T13:15:23;2.57;;;1.40;;
15665;SDS011;20725;51.196;3.510;2023-11-21T13:17:50;2.27;;;1.40;;
15665;SDS011;20725;51.196;3.510;2023-11-21T13:20:18;4.03;;;1.33;;
15665;SDS011;20725;51.196;3.510;2023-11-21T13:22:48;3.20;;;1.20;;
15665;SDS011;20725;51.196;3.510;2023-11-21T13:25:18;1.80;;;1.30;;
15665;SDS011;20725;51.196;3.510;2023-11-21T13:27:46;2.57;;;1.37;;
15665;SDS011;20725;51.196;3.510;2023-11-21T13:30:13;2.17;;;1.20;;
15665;SDS011;20725;51.196;3.510;2023-11-21T13:32:48;2.67;;;1.30;;
15665;SDS011;20725;51.196;3.510;2023-11-21T13:35:16;2.47;;;1.30;;
15665;SDS011;20725;51.196;3.510;2023-11-21T13:37:53;2.30;;;1.23;;
15665;SDS011;20725;51.196;3.510;2023-11-21T13:40:21;2.43;;;1.30;;
15665;SDS011;20725;51.196;3.510;2023-11-21T13:42:51;3.33;;;1.17;;
15665;SDS011;20725;51.196;3.510;2023-11-21T13:45:20;2.00;;;1.33;;
15665;SDS011;20725;51.196;3.510;2023-11-21T13:47:51;3.30;;;1.50;;
15665;SDS011;20725;51.196;3.510;2023-11-21T13:50:22;2.47;;;1.40;;
15665;SDS011;20725;51.196;3.510;2023-11-21T13:52:53;4.53;;;1.70;;
15665;SDS011;20725;51.196;3.510;2023-11-21T13:55:20;3.20;;;1.37;;
15665;SDS011;20725;51.196;3.510;2023-11-21T13:57:50;3.53;;;1.70;;
15665;SDS011;20725;51.196;3.510;2023-11-21T14:00:18;3.07;;;1.37;;
15665;SDS011;20725;51.196;3.510;2023-11-21T14:03:14;4.00;;;1.20;;
15665;SDS011;20725;51.196;3.510;2023-11-21T14:05:47;3.40;;;1.60;;
15665;SDS011;20725;51.196;3.510;2023-11-21T14:08:18;4.60;;;1.70;;
15665;SDS011;20725;51.196;3.510;2023-11-21T14:10:46;2.87;;;1.10;;
15665;SDS011;20725;51.196;3.510;2023-11-21T14:13:22;3.47;;;1.30;;
15665;SDS011;20725;51.196;3.510;2023-11-21T14:15:49;2.07;;;1.10;;
15665;SDS011;20725;51.196;3.510;2023-11-21T14:18:22;2.30;;;1.30;;
15665;SDS011;20725;51.196;3.510;2023-11-21T14:20:55;1.93;;;1.10;;
15665;SDS011;20725;51.196;3.510;2023-11-21T14:23:24;3.00;;;1.30;;
15665;SDS011;20725;51.196;3.510;2023-11-21T14:25:51;1.80;;;1.10;;
15665;SDS011;20725;51.196;3.510;2023-11-21T14:28:18;1.60;;;1.10;;
15665;SDS011;20725;51.196;3.510;2023-11-21T14:30:46;1.53;;;1.07;;
15665;SDS011;20725;51.196;3.510;2023-11-21T14:33:14;1.13;;;0.90;;
15665;SDS011;20725;51.196;3.510;2023-11-21T14:35:41;1.17;;;1.07;;
15665;SDS011;20725;51.196;3.510;2023-11-21T14:38:09;2.37;;;1.40;;
15665;SDS011;20725;51.196;3.510;2023-11-21T14:40:40;2.57;;;1.33;;